Time;durP1;ratioP1;P1;durP2;ratioP2;P2;SDS_P1;SDS_P2;PMS_P1;PMS_P2;Temp;Humidity;BMP_temperature;BMP_pressure;BME280_temperature;BME280_humidity;BME280_pressure;Samples;Min_cycle;Max_cycle;Signal;HPM_P1;HPM_P2
2021/08/13 00:02:27;;;;;;;6.17;3.92;;;;;;;18.18;62.13;100865.78;1635398;87;21207;-56
2021/08/13 00:05:34;;;;;;;6.90;4.22;;;;;;;18.19;62.08;100877.17;1625507;87;21240;-56
2021/08/13 00:08:41;;;;;;;7.05;4.33;;;;;;;18.20;62.03;100884.45;1624781;88;22006;-56
2021/08/13 00:11:40;;;;;;;5.87;3.62;;;;;;;18.20;62.00;100884.97;1624847;88;21272;-56
2021/08/13 00:14:47;;;;;;;8.60;4.40;;;;;;;18.20;62.02;100889.13;1624669;88;21249;-56
2021/08/13 00:17:53;;;;;;;6.28;3.95;;;;;;;18.19;61.98;100893.80;1624713;88;21249;-56
2021/08/13 00:20:57;;;;;;;7.97;3.75;;;;;;;18.19;61.99;100896.58;1624751;88;21828;-55
2021/08/13 00:24:05;;;;;;;6.80;3.80;;;;;;;18.19;61.99;100900.73;1624769;88;21213;-58
2021/08/13 00:27:11;;;;;;;5.33;3.75;;;;;;;18.17;61.97;100905.63;1624791;88;21359;-56
2021/08/13 00:30:19;;;;;;;7.45;3.95;;;;;;;18.16;62.05;100902.55;1624717;88;21212;-55
2021/08/13 00:33:24;;;;;;;7.45;4.12;;;;;;;18.12;62.11;100909.59;1624750;88;21216;-56
2021/08/13 00:36:29;;;;;;;7.35;3.95;;;;;;;18.11;62.15;100918.95;1624817;88;21390;-55
2021/08/13 00:39:38;;;;;;;7.90;4.10;;;;;;;18.08;62.18;100915.22;1624740;88;21225;-55
2021/08/13 00:42:45;;;;;;;6.60;4.08;;;;;;;18.07;62.23;100917.69;1624616;87;21422;-56
2021/08/13 00:45:51;;;;;;;8.15;4.17;;;;;;;18.03;62.30;100915.00;1625499;84;21352;-56
2021/08/13 00:49:11;;;;;;;7.20;3.87;;;;;;;18.01;62.35;100918.53;1621784;88;21948;-55
2021/08/13 00:52:34;;;;;;;7.53;3.87;;;;;;;18.00;62.39;100911.82;1608391;89;21260;-55
2021/08/13 00:55:40;;;;;;;7.40;4.08;;;;;;;17.98;62.43;100920.87;1594699;90;21365;-55
2021/08/13 00:59:09;;;;;;;9.90;3.58;;;;;;;18.00;62.45;100925.12;1851079;76;22355;-55
2021/08/13 01:02:19;;;;;;;6.37;3.55;;;;;;;17.93;62.49;100927.88;1801729;79;21332;-54
2021/08/13 01:05:27;;;;;;;9.00;4.47;;;;;;;17.94;62.47;100927.35;1766753;81;21895;-54
2021/08/13 01:08:34;;;;;;;7.95;3.80;;;;;;;17.93;62.43;100930.34;1769008;80;21764;-54
2021/08/13 01:11:52;;;;;;;6.67;3.60;;;;;;;17.91;62.40;100926.39;1768699;80;21769;-56
2021/08/13 01:15:18;;;;;;;7.75;4.05;;;;;;;17.90;62.42;100931.07;1768482;79;21220;-57
2021/08/13 01:18:32;;;;;;;7.72;3.87;;;;;;;17.90;62.33;100933.01;1769640;80;21210;-57
2021/08/13 01:21:56;;;;;;;7.87;4.47;;;;;;;17.89;62.28;100934.91;1772681;79;21170;-57
2021/08/13 01:25:02;;;;;;;7.05;3.67;;;;;;;17.86;62.25;100942.27;1769629;79;21256;-56
2021/08/13 01:28:14;;;;;;;5.75;3.60;;;;;;;17.82;62.28;100943.72;1768950;79;21189;-56
2021/08/13 01:31:33;;;;;;;8.08;4.03;;;;;;;17.80;62.34;100943.62;1771432;79;21260;-56
2021/08/13 01:34:43;;;;;;;9.45;3.83;;;;;;;17.76;62.39;100944.56;1770379;79;21208;-56
2021/08/13 01:37:55;;;;;;;7.60;3.83;;;;;;;17.73;62.53;100942.74;1769176;80;21256;-55
2021/08/13 01:41:07;;;;;;;6.25;3.65;;;;;;;17.72;62.55;100944.68;1770935;80;21252;-56
2021/08/13 01:44:13;;;;;;;5.58;3.70;;;;;;;17.70;62.57;100943.16;1776413;78;21355;-55
2021/08/13 01:47:20;;;;;;;6.67;3.85;;;;;;;17.69;62.65;100951.16;1773906;79;21268;-55
2021/08/13 01:50:25;;;;;;;6.87;4.15;;;;;;;17.64;62.74;100948.16;1768857;80;21311;-56
2021/08/13 01:53:31;;;;;;;6.90;4.20;;;;;;;17.62;62.75;100942.83;1768899;80;21239;-54
2021/08/13 01:56:39;;;;;;;5.78;3.60;;;;;;;17.61;62.81;100945.80;1773923;80;21173;-55
2021/08/13 01:59:46;;;;;;;8.70;4.12;;;;;;;17.58;62.80;100953.14;1785629;79;21212;-56
2021/08/13 02:02:55;;;;;;;7.17;3.83;;;;;;;17.55;62.85;100957.72;1793430;79;21792;-56
2021/08/13 02:06:02;;;;;;;7.08;4.08;;;;;;;17.53;62.83;100965.36;1798434;79;21395;-56
2021/08/13 02:09:09;;;;;;;6.42;3.80;;;;;;;17.49;62.88;100962.15;1801599;78;21192;-56
2021/08/13 02:12:15;;;;;;;6.97;3.90;;;;;;;17.47;62.90;100962.05;1801417;79;21346;-47
2021/08/13 02:15:21;;;;;;;10.40;4.67;;;;;;;17.47;62.92;100970.34;1800941;79;21335;-46
2021/08/13 02:18:30;;;;;;;8.45;3.92;;;;;;;17.47;62.86;100974.50;1782933;78;21200;-46
2021/08/13 02:21:38;;;;;;;9.60;3.95;;;;;;;17.50;62.75;100972.70;1800679;79;21528;-46
2021/08/13 02:24:44;;;;;;;9.15;4.00;;;;;;;17.52;62.65;100985.81;1800542;78;21367;-47
2021/08/13 02:27:51;;;;;;;6.92;3.83;;;;;;;17.53;62.60;100981.97;1800750;78;21339;-46
2021/08/13 02:30:57;;;;;;;5.50;3.58;;;;;;;17.52;62.60;100989.42;1800825;79;21204;-47
2021/08/13 02:34:04;;;;;;;8.48;4.37;;;;;;;17.50;62.63;100990.18;1800905;78;21895;-46
2021/08/13 02:37:32;;;;;;;8.90;3.95;;;;;;;17.48;62.69;100990.91;1800827;79;21342;-47
2021/08/13 02:40:40;;;;;;;6.87;4.20;;;;;;;17.45;62.75;100990.45;1800800;79;21370;-46
2021/08/13 02:44:04;;;;;;;8.93;4.83;;;;;;;17.42;62.83;100986.16;1800950;78;21374;-47
2021/08/13 02:47:15;;;;;;;8.60;3.80;;;;;;;17.38;62.93;100986.75;1800995;79;21205;-47
2021/08/13 02:50:20;;;;;;;7.12;4.35;;;;;;;17.37;62.97;100996.13;1767978;81;21193;-45
2021/08/13 02:53:28;;;;;;;6.92;3.95;;;;;;;17.36;63.04;100999.97;1768085;80;21853;-45
2021/08/13 02:56:36;;;;;;;9.00;4.05;;;;;;;17.37;63.07;101008.58;1771676;79;21200;-45
2021/08/13 02:59:42;;;;;;;6.85;4.00;;;;;;;17.37;63.15;100998.38;1774143;79;21213;-45
2021/08/13 03:02:49;;;;;;;6.53;3.92;;;;;;;17.38;63.12;101004.22;1738542;81;21717;-45
2021/08/13 03:05:59;;;;;;;9.80;3.95;;;;;;;17.37;63.13;101010.83;1768767;80;21213;-45
2021/08/13 03:09:07;;;;;;;7.00;4.05;;;;;;;17.38;63.20;101018.58;1729244;82;21390;-45
2021/08/13 03:12:12;;;;;;;8.85;4.33;;;;;;;17.37;63.26;101016.37;1720979;82;21212;-45
2021/08/13 03:15:19;;;;;;;9.10;4.33;;;;;;;17.39;63.31;101021.70;1737238;82;21205;-45
2021/08/13 03:18:24;;;;;;;8.10;4.50;;;;;;;17.41;63.34;101018.20;1720763;81;21308;-46
2021/08/13 03:21:31;;;;;;;8.63;3.98;;;;;;;17.40;63.40;101022.02;1794550;79;21236;-47
2021/08/13 03:24:38;;;;;;;7.15;4.05;;;;;;;17.40;63.47;101019.24;1800311;78;21515;-46
2021/08/13 03:27:44;;;;;;;8.40;4.25;;;;;;;17.40;63.47;101018.72;1800272;78;21327;-46
2021/08/13 03:30:50;;;;;;;11.83;4.47;;;;;;;17.39;63.53;101025.33;1799857;79;21197;-46
2021/08/13 03:33:59;;;;;;;8.80;4.28;;;;;;;17.42;63.55;101023.53;1773614;78;21193;-46
2021/08/13 03:37:05;;;;;;;6.78;4.22;;;;;;;17.44;63.63;101028.34;1778069;79;21323;-47
2021/08/13 03:40:12;;;;;;;9.03;3.98;;;;;;;17.46;63.59;101030.39;1772831;79;21343;-46
2021/08/13 03:43:18;;;;;;;9.40;4.10;;;;;;;17.44;63.67;101036.65;1766437;81;21374;-46
2021/08/13 03:46:26;;;;;;;7.60;4.65;;;;;;;17.44;63.71;101039.94;1772585;80;21358;-46
2021/08/13 03:49:32;;;;;;;7.40;4.30;;;;;;;17.48;63.75;101050.95;1769631;80;21351;-46
2021/08/13 03:52:39;;;;;;;7.75;4.25;;;;;;;17.54;63.63;101056.52;1769247;79;21177;-45
2021/08/13 03:55:48;;;;;;;7.03;4.30;;;;;;;17.59;63.50;101061.44;1768161;80;21217;-45
2021/08/13 03:58:55;;;;;;;7.85;4.15;;;;;;;17.63;63.45;101064.98;1767935;80;21264;-45
2021/08/13 04:02:01;;;;;;;9.65;4.08;;;;;;;17.68;63.58;101067.13;1782167;79;21217;-45
2021/08/13 04:05:07;;;;;;;10.00;4.80;;;;;;;17.72;63.33;101058.23;1800235;78;21378;-46
2021/08/13 04:08:17;;;;;;;8.58;4.08;;;;;;;17.77;63.19;101067.30;1800720;78;21220;-46
2021/08/13 04:11:24;;;;;;;7.90;4.50;;;;;;;17.80;63.07;101066.88;1800762;79;21426;-45
2021/08/13 04:14:33;;;;;;;9.33;4.50;;;;;;;17.85;62.96;101070.73;1800816;78;21367;-46
2021/08/13 04:17:40;;;;;;;8.55;4.72;;;;;;;17.88;62.96;101075.02;1800278;78;21347;-46
2021/08/13 04:20:52;;;;;;;10.63;4.33;;;;;;;17.95;63.00;101080.59;1800713;79;21406;-46
2021/08/13 04:23:56;;;;;;;7.58;4.55;;;;;;;18.00;62.90;101084.44;1800533;78;21437;-46
2021/08/13 04:27:02;;;;;;;10.88;5.87;;;;;;;18.07;62.83;101089.48;1800687;79;21200;-46
2021/08/13 04:30:12;;;;;;;12.47;7.35;;;;;;;18.15;62.65;101093.47;1800783;79;21335;-45
2021/08/13 04:33:20;;;;;;;14.78;8.38;;;;;;;18.23;62.47;101098.83;1800663;78;21359;-45
2021/08/13 04:36:27;;;;;;;9.95;5.45;;;;;;;18.31;62.32;101089.46;1734259;82;21468;-46
2021/08/13 04:39:33;;;;;;;10.20;5.22;;;;;;;18.40;62.33;101091.87;1708416;82;21402;-47
2021/08/13 04:42:38;;;;;;;9.75;4.08;;;;;;;18.49;61.90;101097.53;1769317;80;21272;-46
2021/08/13 04:45:44;;;;;;;8.30;4.20;;;;;;;18.58;61.77;101094.05;1769203;81;21240;-46
2021/08/13 04:48:52;;;;;;;9.08;3.67;;;;;;;18.63;61.43;101096.49;1768321;79;21570;-46
2021/08/13 04:51:58;;;;;;;7.55;3.80;;;;;;;18.71;61.29;101096.30;1768661;81;21864;-47
2021/08/13 04:55:06;;;;;;;9.80;4.28;;;;;;;18.81;61.21;101098.66;1769224;79;21224;-46
2021/08/13 04:58:13;;;;;;;5.15;3.60;;;;;;;18.90;61.04;101098.79;1776552;79;21394;-46
2021/08/13 05:01:19;;;;;;;9.93;4.28;;;;;;;19.00;60.63;101104.23;1802244;79;21203;-48
2021/08/13 05:04:25;;;;;;;9.93;4.53;;;;;;;19.10;60.26;101106.58;1767800;80;21213;-49
2021/08/13 05:07:31;;;;;;;7.92;4.10;;;;;;;19.18;60.25;101093.35;1765534;81;21185;-48
2021/08/13 05:10:42;;;;;;;17.40;4.62;;;;;;;19.27;60.06;101093.44;1764707;80;21570;-48
2021/08/13 05:13:46;;;;;;;8.08;3.90;;;;;;;19.39;59.79;101102.54;1764839;80;21170;-48
2021/08/13 05:16:52;;;;;;;9.28;3.95;;;;;;;19.45;59.70;101096.98;1765273;80;21178;-48
2021/08/13 05:20:02;;;;;;;7.40;4.15;;;;;;;19.56;59.26;101103.26;1748670;80;21718;-49
2021/08/13 05:23:11;;;;;;;7.53;3.87;;;;;;;19.67;59.22;101101.73;1766517;80;21229;-50
2021/08/13 05:26:20;;;;;;;7.33;3.85;;;;;;;19.77;59.12;101102.14;1750239;80;21442;-47
2021/08/13 05:29:28;;;;;;;7.15;3.80;;;;;;;19.88;58.88;101101.47;1766137;80;21261;-48
2021/08/13 05:32:35;;;;;;;7.22;3.52;;;;;;;19.98;58.71;101090.75;1765858;81;21170;-49
2021/08/13 05:35:40;;;;;;;7.55;4.22;;;;;;;20.11;58.70;101097.63;1766745;80;21332;-49
2021/08/13 05:38:48;;;;;;;6.42;4.05;;;;;;;20.21;58.16;101096.66;1766458;80;21335;-48
2021/08/13 05:41:54;;;;;;;7.80;4.28;;;;;;;20.29;57.89;101103.36;1766906;80;21253;-49
2021/08/13 05:45:00;;;;;;;9.78;4.20;;;;;;;20.35;58.27;101098.30;1764271;80;21355;-50
2021/08/13 05:48:06;;;;;;;9.93;3.87;;;;;;;20.44;58.17;101097.81;1754716;80;21629;-50
2021/08/13 05:51:15;;;;;;;6.70;3.95;;;;;;;20.54;57.89;101105.67;1724272;82;21204;-50
2021/08/13 05:54:27;;;;;;;7.95;4.28;;;;;;;20.59;57.77;101093.34;1736784;81;21221;-47
2021/08/13 05:57:38;;;;;;;5.72;3.25;;;;;;;20.67;57.82;101099.51;1737179;82;21339;-49
2021/08/13 06:00:52;;;;;;;7.33;3.92;;;;;;;20.77;57.80;101097.06;1736531;82;21378;-49
2021/08/13 06:03:57;;;;;;;5.12;3.12;;;;;;;20.90;57.38;101102.23;1749085;79;21266;-48
2021/08/13 06:07:12;;;;;;;4.70;3.00;;;;;;;20.98;56.79;101103.39;1791950;79;21212;-51
2021/08/13 06:10:21;;;;;;;7.03;3.80;;;;;;;21.05;55.97;101098.60;1773060;79;21334;-48
2021/08/13 06:13:26;;;;;;;5.33;3.40;;;;;;;21.12;56.06;101102.20;1760876;81;21866;-49
2021/08/13 06:16:33;;;;;;;5.72;3.20;;;;;;;21.23;56.06;101104.24;1736162;82;21197;-61
2021/08/13 06:19:43;;;;;;;5.65;3.15;;;;;;;21.31;55.71;101104.79;1786705;79;21434;-61
2021/08/13 06:22:51;;;;;;;5.80;3.30;;;;;;;21.41;55.23;101110.70;1782255;79;21205;-60
2021/08/13 06:25:57;;;;;;;5.40;3.00;;;;;;;21.50;55.12;101119.08;1735876;80;22023;-59
2021/08/13 06:29:06;;;;;;;6.05;3.40;;;;;;;21.60;55.12;101112.45;1753021;80;21381;-61
2021/08/13 06:32:14;;;;;;;7.67;2.87;;;;;;;21.68;54.36;101107.97;1752531;79;21407;-59
2021/08/13 06:35:24;;;;;;;5.20;3.10;;;;;;;21.76;53.16;101106.84;1766076;79;21717;-61
2021/08/13 06:38:30;;;;;;;6.05;3.10;;;;;;;21.78;52.88;101108.86;1762785;81;21327;-61
2021/08/13 06:41:38;;;;;;;5.85;3.15;;;;;;;21.81;52.97;101107.87;1756550;80;21220;-62
2021/08/13 06:44:49;;;;;;;10.15;3.50;;;;;;;21.86;53.29;101112.21;1752001;80;21351;-59
2021/08/13 06:48:02;;;;;;;7.00;3.33;;;;;;;21.90;52.67;101103.68;1769121;79;21181;-57
2021/08/13 06:51:12;;;;;;;5.87;3.12;;;;;;;21.96;51.98;101105.53;1783483;79;21195;-60
2021/08/13 06:54:23;;;;;;;5.35;3.10;;;;;;;22.02;52.13;101103.77;1811907;78;21666;-61
2021/08/13 06:57:30;;;;;;;4.20;2.85;;;;;;;22.11;51.58;101101.83;1805463;79;21334;-60
2021/08/13 07:00:34;;;;;;;6.40;3.20;;;;;;;22.18;50.81;101098.39;1799095;79;21256;-62
2021/08/13 07:03:41;;;;;;;5.83;3.33;;;;;;;22.24;50.83;101091.03;1796676;78;21196;-64
2021/08/13 07:06:48;;;;;;;7.95;3.12;;;;;;;22.34;50.67;101091.88;1775338;79;21334;-63
2021/08/13 07:09:54;;;;;;;9.38;3.72;;;;;;;22.47;50.40;101099.50;1767847;79;21358;-60
2021/08/13 07:13:01;;;;;;;6.58;3.33;;;;;;;22.58;49.68;101090.92;1794113;78;21691;-63
2021/08/13 07:16:06;;;;;;;7.87;3.05;;;;;;;22.69;49.70;101102.68;1736316;81;21731;-64
2021/08/13 07:19:12;;;;;;;5.65;3.12;;;;;;;22.76;48.47;101103.41;1741792;81;21221;-60
2021/08/13 07:22:19;;;;;;;3.83;2.83;;;;;;;22.80;49.00;101107.45;1755608;81;21264;-63
2021/08/13 07:25:24;;;;;;;4.92;3.22;;;;;;;22.88;48.08;101101.53;1768941;79;21394;-63
2021/08/13 07:28:34;;;;;;;8.93;3.50;;;;;;;22.93;47.99;101091.89;1765521;80;21872;-61
2021/08/13 07:31:41;;;;;;;5.85;3.08;;;;;;;22.98;47.67;101104.56;1765287;81;21197;-62
2021/08/13 07:34:50;;;;;;;9.45;3.72;;;;;;;23.02;47.77;101102.48;1765734;80;21396;-64
2021/08/13 07:37:59;;;;;;;6.65;3.62;;;;;;;23.13;47.03;101111.97;1765871;81;21860;-61
2021/08/13 07:41:06;;;;;;;5.45;3.98;;;;;;;23.15;46.12;101094.42;1765902;80;21366;-62
2021/08/13 07:44:14;;;;;;;6.83;3.40;;;;;;;23.13;46.14;101102.19;1766273;80;21870;-60
2021/08/13 07:47:23;;;;;;;7.45;3.47;;;;;;;23.11;46.00;101098.23;1761328;81;21185;-58
2021/08/13 07:50:40;;;;;;;7.33;3.10;;;;;;;23.12;45.48;101092.94;1763578;81;21551;-61
2021/08/13 07:53:58;;;;;;;9.73;3.30;;;;;;;23.19;44.08;101094.23;1737007;81;21260;-60
2021/08/13 07:57:07;;;;;;;5.05;3.02;;;;;;;23.22;44.05;101100.20;1737350;82;21697;-61
2021/08/13 08:00:21;;;;;;;7.08;3.60;;;;;;;23.22;44.48;101087.63;1729534;81;21814;-61
2021/08/13 08:03:26;;;;;;;7.57;3.40;;;;;;;23.30;44.32;101092.89;1744813;81;21390;-60
2021/08/13 08:06:34;;;;;;;8.43;3.50;;;;;;;23.41;44.20;101094.84;1773401;79;22020;-61
2021/08/13 08:09:44;;;;;;;9.18;4.17;;;;;;;23.48;44.21;101083.55;1764275;80;21324;-59
2021/08/13 08:12:50;;;;;;;5.42;3.27;;;;;;;23.56;44.09;101073.39;1765600;79;21553;-62
2021/08/13 08:15:56;;;;;;;6.15;3.17;;;;;;;23.66;43.48;101076.41;1765670;81;21348;-60
2021/08/13 08:19:02;;;;;;;7.65;3.90;;;;;;;23.71;42.68;101078.46;1768187;79;21347;-58
2021/08/13 08:22:09;;;;;;;9.68;3.90;;;;;;;23.71;43.73;101075.66;1766325;80;21230;-57
2021/08/13 08:25:23;;;;;;;10.18;3.75;;;;;;;23.82;43.31;101074.83;1752546;80;21352;-61
2021/08/13 08:28:29;;;;;;;5.87;3.47;;;;;;;23.94;43.40;101071.45;1766816;80;21414;-60
2021/08/13 08:31:38;;;;;;;8.00;3.67;;;;;;;24.01;43.35;101081.44;1756456;80;21185;-58
2021/08/13 08:34:48;;;;;;;7.33;4.17;;;;;;;24.06;43.70;101088.55;1756655;81;21202;-59
2021/08/13 08:38:02;;;;;;;6.33;4.10;;;;;;;24.11;42.04;101084.46;1765767;80;21745;-63
2021/08/13 08:41:12;;;;;;;10.35;4.55;;;;;;;24.14;42.05;101090.96;1758607;81;21320;-62
2021/08/13 08:44:17;;;;;;;11.33;4.08;;;;;;;24.15;41.00;101092.65;1767116;80;21166;-60
2021/08/13 08:47:23;;;;;;;20.20;4.53;;;;;;;24.15;41.35;101068.86;1755720;80;21197;-60
2021/08/13 08:50:30;;;;;;;7.05;3.80;;;;;;;24.17;41.93;101080.67;1708829;83;21774;-61
2021/08/13 08:53:37;;;;;;;5.90;3.42;;;;;;;24.26;41.97;101095.96;1711956;83;21722;-61
2021/08/13 08:56:43;;;;;;;6.10;3.37;;;;;;;24.28;41.00;101081.72;1763472;81;21853;-59
2021/08/13 08:59:50;;;;;;;5.40;3.40;;;;;;;24.30;40.81;101073.39;1765453;80;21213;-62
2021/08/13 09:02:56;;;;;;;5.92;3.62;;;;;;;24.35;40.86;101079.09;1761757;81;21186;-62
2021/08/13 09:06:01;;;;;;;9.80;3.65;;;;;;;24.41;40.79;101087.89;1772206;79;21235;-61
2021/08/13 09:09:12;;;;;;;6.47;3.50;;;;;;;24.47;40.42;101091.09;1770006;79;21569;-60
2021/08/13 09:12:15;;;;;;;8.08;3.52;;;;;;;24.54;40.95;101083.41;1758774;80;21286;-60
2021/08/13 09:15:34;;;;;;;6.45;3.92;;;;;;;24.66;41.24;101074.42;1737916;82;21692;-62
2021/08/13 09:18:40;;;;;;;6.45;3.52;;;;;;;24.78;40.57;101072.39;1794301;77;21358;-61
2021/08/13 09:21:46;;;;;;;5.85;4.15;;;;;;;24.88;40.68;101080.99;1817199;78;21197;-59
2021/08/13 09:24:53;;;;;;;8.73;4.12;;;;;;;24.92;39.59;101074.34;1768423;79;21356;-61
2021/08/13 09:28:16;;;;;;;9.63;4.20;;;;;;;24.96;39.85;101068.52;1775962;79;21797;-60
2021/08/13 09:31:35;;;;;;;6.58;3.85;;;;;;;25.03;39.51;101074.27;1791632;79;21366;-59
2021/08/13 09:34:55;;;;;;;8.23;4.08;;;;;;;25.08;39.78;101080.52;1758246;81;21224;-61
2021/08/13 09:38:04;;;;;;;5.72;3.65;;;;;;;25.13;39.78;101063.80;1782289;79;21832;-59
2021/08/13 09:41:22;;;;;;;7.60;3.80;;;;;;;25.19;39.60;101068.91;1790388;79;21177;-60
2021/08/13 09:44:40;;;;;;;8.03;4.20;;;;;;;25.25;39.20;101060.87;1799180;79;21200;-59
2021/08/13 09:47:54;;;;;;;9.23;3.65;;;;;;;25.30;39.02;101066.58;1727897;81;21237;-60
2021/08/13 09:51:01;;;;;;;7.80;4.22;;;;;;;25.38;38.35;101066.18;1765230;81;21332;-60
2021/08/13 09:54:08;;;;;;;5.50;4.00;;;;;;;25.44;38.04;101065.14;1764862;81;21402;-60
2021/08/13 09:57:18;;;;;;;6.58;3.45;;;;;;;25.47;38.34;101078.11;1765008;81;21575;-60
2021/08/13 10:00:25;;;;;;;8.35;3.85;;;;;;;25.56;38.74;101061.70;1765719;81;21178;-58
2021/08/13 10:03:32;;;;;;;7.05;4.20;;;;;;;25.65;39.17;101055.40;1765409;81;21363;-60
2021/08/13 10:06:42;;;;;;;8.18;4.40;;;;;;;25.77;38.85;101063.68;1766727;80;21229;-60
2021/08/13 10:09:52;;;;;;;7.33;3.92;;;;;;;25.85;38.76;101064.64;1718780;82;21404;-62
2021/08/13 10:13:01;;;;;;;5.35;3.42;;;;;;;25.89;37.47;101068.64;1698750;82;21618;-58
2021/08/13 10:16:14;;;;;;;6.45;3.87;;;;;;;25.93;37.09;101062.79;1719010;83;21242;-58
2021/08/13 10:19:24;;;;;;;6.55;3.60;;;;;;;25.99;37.13;101063.17;1719836;82;21191;-60
2021/08/13 10:22:32;;;;;;;7.50;3.85;;;;;;;26.09;37.51;101059.97;1719326;83;21218;-60
2021/08/13 10:25:38;;;;;;;4.80;3.30;;;;;;;26.21;37.56;101058.44;1720180;82;21262;-59
2021/08/13 10:28:46;;;;;;;8.20;4.00;;;;;;;26.26;37.79;101052.86;1737346;81;21246;-60
2021/08/13 10:31:54;;;;;;;6.42;3.35;;;;;;;26.20;37.66;101063.74;1734800;82;21213;-59
2021/08/13 10:35:02;;;;;;;7.42;3.25;;;;;;;26.09;37.99;101067.53;1735677;81;21530;-60
2021/08/13 10:38:10;;;;;;;5.92;3.67;;;;;;;26.09;37.87;101051.55;1735022;82;21220;-59
2021/08/13 10:41:16;;;;;;;7.00;3.27;;;;;;;26.20;38.22;101066.55;1658864;85;21240;-58
2021/08/13 10:44:31;;;;;;;5.55;3.55;;;;;;;26.31;38.00;101055.73;1735533;82;21249;-59
2021/08/13 10:47:41;;;;;;;7.28;3.52;;;;;;;26.46;38.22;101074.19;1735835;82;21383;-59
2021/08/13 10:50:49;;;;;;;6.90;3.40;;;;;;;26.54;37.95;101062.48;1670663;85;21168;-58
2021/08/13 10:53:54;;;;;;;4.00;2.77;;;;;;;26.68;37.50;101056.77;1735304;81;21360;-58
2021/08/13 10:57:01;;;;;;;5.42;2.95;;;;;;;26.75;37.81;101068.62;1709336;82;21331;-61
2021/08/13 11:00:07;;;;;;;5.97;3.27;;;;;;;26.80;37.41;101078.52;1666860;84;21738;-60
2021/08/13 11:03:25;;;;;;;16.90;6.58;;;;;;;26.84;37.03;101056.35;1696952;83;21225;-62
2021/08/13 11:06:48;;;;;;;5.03;3.00;;;;;;;26.98;37.51;101047.77;1717008;81;21204;-60
2021/08/13 11:09:54;;;;;;;5.65;2.75;;;;;;;27.22;36.34;101059.80;1760481;79;21174;-61
2021/08/13 11:13:19;;;;;;;5.17;2.90;;;;;;;27.32;35.88;101052.87;1767223;80;21307;-60
2021/08/13 11:16:39;;;;;;;5.10;2.52;;;;;;;27.42;35.74;101052.95;1721754;82;21204;-55
2021/08/13 11:20:05;;;;;;;4.55;2.58;;;;;;;27.50;36.45;101038.39;1770405;80;21231;-55
2021/08/13 11:23:13;;;;;;;6.53;2.58;;;;;;;27.45;35.77;101055.22;1784645;79;21354;-55
2021/08/13 11:26:19;;;;;;;6.53;2.77;;;;;;;27.28;35.63;101048.91;1765802;80;21228;-54
2021/08/13 11:29:46;;;;;;;6.75;2.62;;;;;;;27.07;34.77;101038.58;1768959;79;21355;-55
2021/08/13 11:32:50;;;;;;;5.12;2.62;;;;;;;26.93;35.24;101045.77;1765148;80;21319;-55
2021/08/13 11:35:57;;;;;;;4.65;2.85;;;;;;;26.98;36.03;101050.03;1764489;79;21366;-56
2021/08/13 11:39:07;;;;;;;5.37;2.92;;;;;;;27.06;36.11;101052.36;1781186;79;21323;-56
2021/08/13 11:42:17;;;;;;;4.40;2.62;;;;;;;27.30;36.37;101043.02;1780960;79;21261;-55
2021/08/13 11:45:24;;;;;;;6.62;2.50;;;;;;;27.34;35.70;101042.75;1789932;79;21363;-53
2021/08/13 11:48:32;;;;;;;6.08;2.67;;;;;;;27.18;35.56;101041.77;1758901;79;21846;-53
2021/08/13 11:51:38;;;;;;;4.40;2.42;;;;;;;27.08;35.67;101043.10;1757734;80;21327;-54
2021/08/13 11:54:45;;;;;;;5.05;2.70;;;;;;;27.02;35.44;101044.16;1767979;79;21207;-54
2021/08/13 11:57:51;;;;;;;4.50;2.47;;;;;;;26.90;35.54;101038.42;1786319;79;21204;-54
2021/08/13 12:01:09;;;;;;;3.72;2.33;;;;;;;26.96;36.08;101039.60;1768501;79;21339;-54
2021/08/13 12:04:26;;;;;;;3.62;2.27;;;;;;;27.18;36.04;101034.73;1763986;80;21888;-54
2021/08/13 12:07:33;;;;;;;5.72;2.40;;;;;;;27.48;35.18;101040.61;1759708;79;21241;-54
2021/08/13 12:10:40;;;;;;;6.30;2.20;;;;;;;27.75;34.52;101032.91;1749646;80;21296;-55
2021/08/13 12:13:48;;;;;;;3.30;2.12;;;;;;;27.91;34.52;101047.11;1787889;80;21350;-56
2021/08/13 12:17:01;;;;;;;4.55;2.25;;;;;;;27.86;34.96;101037.47;1771927;79;21195;-55
2021/08/13 12:20:13;;;;;;;3.40;2.37;;;;;;;27.62;34.88;101041.83;1765665;81;21197;-54
2021/08/13 12:23:22;;;;;;;6.60;2.47;;;;;;;27.34;35.20;101038.53;1764180;81;21197;-53
2021/08/13 12:26:32;;;;;;;6.25;2.50;;;;;;;27.23;35.11;101030.56;1740669;82;21362;-55
2021/08/13 12:29:41;;;;;;;4.33;2.70;;;;;;;27.31;35.58;101033.45;1736697;81;21371;-53
2021/08/13 12:32:52;;;;;;;7.08;2.45;;;;;;;27.41;35.85;101045.64;1736589;81;21347;-55
2021/08/13 12:35:58;;;;;;;4.70;2.40;;;;;;;27.48;34.90;101047.64;1736379;82;21335;-53
2021/08/13 12:39:03;;;;;;;5.50;2.30;;;;;;;27.51;35.21;101034.44;1735879;81;21347;-53
2021/08/13 12:42:10;;;;;;;9.85;2.70;;;;;;;27.39;35.48;101042.25;1737995;81;22164;-54
2021/08/13 12:45:21;;;;;;;4.00;2.40;;;;;;;27.25;35.74;101033.95;1736225;81;21446;-55
2021/08/13 12:48:29;;;;;;;4.10;1.90;;;;;;;27.14;35.70;101037.80;1740960;81;21218;-54
2021/08/13 12:51:35;;;;;;;3.10;1.92;;;;;;;27.16;36.10;101038.36;1736320;82;21323;-55
2021/08/13 12:54:44;;;;;;;5.47;2.77;;;;;;;27.07;36.23;101035.77;1738409;80;21363;-54
2021/08/13 12:57:49;;;;;;;4.67;2.30;;;;;;;26.96;36.46;101039.60;1736990;81;21347;-60
2021/08/13 13:01:00;;;;;;;4.62;2.20;;;;;;;26.86;36.24;101033.05;1736722;81;21173;-59
2021/08/13 13:04:23;;;;;;;7.28;2.58;;;;;;;26.76;36.31;101042.23;1740624;80;21357;-61
2021/08/13 13:07:44;;;;;;;5.37;2.77;;;;;;;26.79;36.66;101044.51;1737593;80;21748;-62
2021/08/13 13:10:51;;;;;;;4.33;1.95;;;;;;;26.79;36.66;101044.51;1749732;79;21559;-59
2021/08/13 13:14:02;;;;;;;4.58;2.10;;;;;;;26.90;35.82;101044.89;1767498;79;21233;-58
2021/08/13 13:17:12;;;;;;;5.78;2.00;;;;;;;26.94;36.03;101052.24;1767205;80;21345;-59
2021/08/13 13:20:23;;;;;;;3.15;2.00;;;;;;;26.99;35.95;101047.50;1768716;80;21296;-59
2021/08/13 13:23:35;;;;;;;3.83;2.20;;;;;;;27.04;34.95;101057.94;1767386;79;21803;-60
2021/08/13 13:27:08;;;;;;;6.15;2.15;;;;;;;26.95;35.04;101046.35;1744024;81;21477;-59
2021/08/13 13:30:44;;;;;;;6.08;2.33;;;;;;;26.96;35.29;101041.56;1800119;79;21185;-58
2021/08/13 13:33:53;;;;;;;3.75;2.12;;;;;;;26.99;35.79;101053.13;1800093;79;21319;-57
2021/08/13 13:37:23;;;;;;;5.80;2.60;;;;;;;27.05;36.03;101049.81;1804740;79;21852;-59
2021/08/13 13:40:31;;;;;;;6.55;2.12;;;;;;;27.05;35.83;101049.23;1805105;79;21189;-58
2021/08/13 13:43:37;;;;;;;3.22;2.08;;;;;;;27.05;35.60;101039.39;1805192;79;21366;-58
2021/08/13 13:46:44;;;;;;;4.65;1.80;;;;;;;27.10;35.49;101051.27;1803700;79;21327;-58
2021/08/13 13:49:51;;;;;;;3.10;1.82;;;;;;;27.11;35.12;101051.00;1803781;79;21360;-58
2021/08/13 13:53:01;;;;;;;4.15;2.10;;;;;;;27.11;35.43;101051.00;1801938;78;21291;-58
2021/08/13 13:56:06;;;;;;;5.42;2.22;;;;;;;27.11;35.40;101051.55;1751860;81;21792;-58
2021/08/13 13:59:12;;;;;;;4.15;2.02;;;;;;;27.01;35.73;101052.30;1767295;80;21411;-58
2021/08/13 14:02:21;;;;;;;4.47;2.17;;;;;;;27.05;35.85;101048.41;1733116;82;21417;-59
2021/08/13 14:05:42;;;;;;;3.40;2.15;;;;;;;27.08;35.94;101043.10;1689560;82;21201;-59
2021/08/13 14:08:52;;;;;;;10.93;4.65;;;;;;;27.14;35.43;101049.05;1803484;78;21208;-58
2021/08/13 14:12:01;;;;;;;3.75;2.10;;;;;;;27.10;35.37;101040.02;1793676;78;21220;-59
2021/08/13 14:15:21;;;;;;;5.42;2.33;;;;;;;27.12;35.43;101045.66;1763391;80;21166;-59
2021/08/13 14:18:32;;;;;;;5.33;2.02;;;;;;;27.14;35.88;101040.62;1758764;81;21287;-58
2021/08/13 14:21:41;;;;;;;3.20;2.00;;;;;;;27.25;35.75;101045.20;1767178;81;21213;-60
2021/08/13 14:24:50;;;;;;;5.35;2.02;;;;;;;27.24;35.69;101040.67;1758252;81;21348;-59
2021/08/13 14:27:57;;;;;;;4.90;2.20;;;;;;;27.21;35.81;101036.17;1767164;79;21581;-58
2021/08/13 14:31:03;;;;;;;3.10;1.90;;;;;;;27.18;35.92;101033.91;1761902;81;21849;-58
2021/08/13 14:34:10;;;;;;;4.72;2.08;;;;;;;27.11;35.91;101038.34;1803539;79;22228;-56
2021/08/13 14:37:20;;;;;;;4.08;2.12;;;;;;;27.09;36.03;101032.14;1805493;79;21798;-58
2021/08/13 14:40:26;;;;;;;3.67;1.85;;;;;;;27.07;35.81;101038.58;1766929;81;21248;-59